createdAt,value
2019-06-07T00:00:58.214Z,94.17
2019-06-07T00:01:58.198Z,93.92
2019-06-07T00:02:58.193Z,94.27
2019-06-07T00:03:58.198Z,94.58
2019-06-07T00:04:58.169Z,94.48
2019-06-07T00:05:58.157Z,94.07
2019-06-07T00:06:58.150Z,94.89
2019-06-07T00:08:07.676Z,94.78
2019-06-07T00:08:59.153Z,95.20
2019-06-07T00:09:58.122Z,94.37
2019-06-07T00:10:58.107Z,95.29
2019-06-07T00:11:58.095Z,95.20
2019-06-07T00:12:58.087Z,95.29
2019-06-07T00:13:58.075Z,94.99
2019-06-07T00:14:58.081Z,95.20
2019-06-07T00:15:58.061Z,94.48
2019-06-07T00:16:58.042Z,94.68
2019-06-07T00:17:58.035Z,95.09
2019-06-07T00:18:58.058Z,95.20
2019-06-07T00:19:58.009Z,94.58
2019-06-07T00:20:58.017Z,94.78
2019-06-07T00:22:18.432Z,95.20
2019-06-07T00:22:58.975Z,95.29
2019-06-07T00:23:57.975Z,95.40
2019-06-07T00:24:57.955Z,94.78
2019-06-07T00:25:57.945Z,94.68
2019-06-07T00:26:59.237Z,94.58
2019-06-07T00:27:57.927Z,93.96
2019-06-07T00:28:57.912Z,94.27
2019-06-07T00:29:57.901Z,94.27
2019-06-07T00:30:57.904Z,94.23
2019-06-07T00:31:57.880Z,94.12
2019-06-07T00:32:57.936Z,93.55
2019-06-07T00:33:57.865Z,93.82
2019-06-07T00:34:57.847Z,93.96
2019-06-07T00:35:57.841Z,93.86
2019-06-07T00:36:57.835Z,93.76
2019-06-07T00:37:57.814Z,93.66
2019-06-07T00:38:57.826Z,94.07
2019-06-07T00:40:13.369Z,94.07
2019-06-07T00:40:58.784Z,94.27
2019-06-07T00:41:57.780Z,94.17
2019-06-07T00:42:57.763Z,94.17
2019-06-07T00:43:57.752Z,94.07
2019-06-07T00:44:57.761Z,94.17
2019-06-07T00:45:57.743Z,93.96
2019-06-07T00:46:57.723Z,94.37
2019-06-07T00:47:57.709Z,94.42
2019-06-07T00:48:57.704Z,94.32
2019-06-07T00:49:57.691Z,94.48
2019-06-07T00:50:57.692Z,94.48
2019-06-07T00:51:57.673Z,94.89
2019-06-07T00:53:14.858Z,94.93
2019-06-07T00:53:58.653Z,95.20
2019-06-07T00:54:57.637Z,95.20
2019-06-07T00:55:57.621Z,94.99
2019-06-07T00:56:57.636Z,94.93
2019-06-07T00:57:57.609Z,94.93
2019-06-07T00:59:10.787Z,95.24
2019-06-07T00:59:58.583Z,95.34
2019-06-07T01:00:57.606Z,95.34
2019-06-07T01:01:57.565Z,95.03
2019-06-07T01:02:57.585Z,95.24
2019-06-07T01:03:57.542Z,94.62
2019-06-07T01:04:57.530Z,95.03
2019-06-07T01:05:57.517Z,95.03
2019-06-07T01:06:57.504Z,95.24
2019-06-07T01:07:57.517Z,95.65
2019-06-07T01:08:57.513Z,95.54
2019-06-07T01:09:57.482Z,95.28
2019-06-07T01:10:57.463Z,95.69
2019-06-07T01:11:57.450Z,95.28
2019-06-07T01:12:57.442Z,95.59
2019-06-07T01:13:57.435Z,96.00
2019-06-07T01:14:57.441Z,96.10
2019-06-07T01:15:57.432Z,95.49
2019-06-07T01:17:13.516Z,96.31
2019-06-07T01:18:33.661Z,96.10
2019-06-07T01:18:58.379Z,96.31
2019-06-07T01:19:57.367Z,96.04
2019-06-07T01:20:57.371Z,96.25
2019-06-07T01:21:57.476Z,96.10
2019-06-07T01:22:57.336Z,96.20
2019-06-07T01:24:11.319Z,96.35
2019-06-07T01:24:58.311Z,96.04
2019-06-07T01:25:57.311Z,95.90
2019-06-07T01:26:57.307Z,95.94
2019-06-07T01:27:57.287Z,96.51
2019-06-07T01:28:57.276Z,96.77
2019-06-07T01:29:57.263Z,96.45
2019-06-07T01:30:57.252Z,96.41
2019-06-07T01:31:57.242Z,96.51
2019-06-07T01:32:57.261Z,96.45
2019-06-07T01:33:57.219Z,95.84
2019-06-07T01:34:57.211Z,96.45
2019-06-07T01:35:57.195Z,96.66
2019-06-07T01:36:57.212Z,96.25
2019-06-07T01:37:57.180Z,96.45
2019-06-07T01:38:57.180Z,96.35
2019-06-07T01:39:57.154Z,96.77
2019-06-07T01:40:57.144Z,96.45
2019-06-07T01:41:57.135Z,96.87
2019-06-07T01:42:57.119Z,97.28
2019-06-07T01:43:57.108Z,96.97
2019-06-07T01:44:57.119Z,96.25
2019-06-07T01:45:57.089Z,96.91
2019-06-07T01:46:57.077Z,97.22
2019-06-07T01:47:57.089Z,97.38
2019-06-07T01:48:57.065Z,97.38
2019-06-07T01:49:57.046Z,97.12
2019-06-07T01:50:57.052Z,96.97
2019-06-07T01:51:57.030Z,96.77
2019-06-07T01:52:57.012Z,97.17
2019-06-07T01:54:41.317Z,97.17
2019-06-07T01:54:59.123Z,97.32
2019-06-07T01:55:56.981Z,97.22
2019-06-07T01:56:56.984Z,97.42
2019-06-07T01:57:56.958Z,96.97
2019-06-07T01:58:56.946Z,97.32
2019-06-07T01:59:56.960Z,96.81
2019-06-07T02:00:56.956Z,97.07
2019-06-07T02:01:56.918Z,96.81
2019-06-07T02:02:56.946Z,97.63
2019-06-07T02:03:56.898Z,96.45
2019-06-07T02:04:56.895Z,97.07
2019-06-07T02:05:56.895Z,97.17
2019-06-07T02:06:56.861Z,97.12
2019-06-07T02:07:56.854Z,96.91
2019-06-07T02:08:56.859Z,96.87
2019-06-07T02:09:56.840Z,97.22
2019-06-07T02:10:56.820Z,97.42
2019-06-07T02:11:56.814Z,96.77
2019-06-07T02:12:56.796Z,97.42
2019-06-07T02:13:56.790Z,97.22
2019-06-07T02:14:56.794Z,97.17
2019-06-07T02:15:56.768Z,97.38
2019-06-07T02:16:56.754Z,97.38
2019-06-07T02:17:56.770Z,97.38
2019-06-07T02:19:02.005Z,96.87
2019-06-07T02:19:57.746Z,96.45
2019-06-07T02:20:56.710Z,96.60
2019-06-07T02:21:56.699Z,96.50
2019-06-07T02:22:56.690Z,96.45
2019-06-07T02:23:56.680Z,95.94
2019-06-07T02:25:34.442Z,96.56
2019-06-07T02:25:57.674Z,96.60
2019-06-07T02:26:56.648Z,96.35
2019-06-07T02:28:25.768Z,96.50
2019-06-07T02:28:57.621Z,96.25
2019-06-07T02:29:56.618Z,96.15
2019-06-07T02:30:59.917Z,96.66
2019-06-07T02:31:56.640Z,95.94
2019-06-07T02:32:56.595Z,95.84
2019-06-07T02:33:56.576Z,95.94
2019-06-07T02:34:56.563Z,96.40
2019-06-07T02:35:56.562Z,96.25
2019-06-07T02:36:56.543Z,96.04
2019-06-07T02:37:56.547Z,96.60
2019-06-07T02:38:56.517Z,96.60
2019-06-07T02:39:56.506Z,95.84
2019-06-07T02:40:56.517Z,96.45
2019-06-07T02:41:56.483Z,96.50
2019-06-07T02:42:56.472Z,96.70
2019-06-07T02:43:56.497Z,96.40
2019-06-07T02:44:56.450Z,96.40
2019-06-07T02:45:56.441Z,96.40
2019-06-07T02:46:56.433Z,96.60
2019-06-07T02:47:56.421Z,96.50
2019-06-07T02:48:56.408Z,97.02
2019-06-07T02:49:56.414Z,97.42
2019-06-07T02:50:56.418Z,97.22
2019-06-07T02:51:56.377Z,97.42
2019-06-07T02:52:56.367Z,97.22
2019-06-07T02:53:56.359Z,97.42
2019-06-07T02:54:56.341Z,97.32
2019-06-07T02:56:34.938Z,97.12
2019-06-07T02:56:58.918Z,96.91
2019-06-07T02:57:56.311Z,97.22
2019-06-07T02:58:56.298Z,96.50
2019-06-07T03:00:16.709Z,97.32
2019-06-07T03:01:08.556Z,97.42
2019-06-07T03:01:57.276Z,97.22
2019-06-07T03:02:56.259Z,96.91
2019-06-07T03:03:56.246Z,97.22
2019-06-07T03:04:56.236Z,97.27
2019-06-07T03:05:56.245Z,97.22
2019-06-07T03:06:56.454Z,97.22
2019-06-07T03:07:56.214Z,96.81
2019-06-07T03:08:56.192Z,96.81
2019-06-07T03:09:56.181Z,96.70
2019-06-07T03:10:56.169Z,97.47
2019-06-07T03:11:56.163Z,96.75
2019-06-07T03:12:56.175Z,97.27
2019-06-07T03:13:56.135Z,96.95
2019-06-07T03:14:56.170Z,96.91
2019-06-07T03:15:56.116Z,97.37
2019-06-07T03:16:56.112Z,97.57
2019-06-07T03:17:56.090Z,97.16
2019-06-07T03:18:56.100Z,97.37
2019-06-07T03:19:56.070Z,96.65
2019-06-07T03:21:04.945Z,96.75
2019-06-07T03:21:57.077Z,96.85
2019-06-07T03:22:56.037Z,97.32
2019-06-07T03:23:56.026Z,97.57
2019-06-07T03:24:56.044Z,96.85
2019-06-07T03:25:56.028Z,96.85
2019-06-07T03:27:32.644Z,96.95
2019-06-07T03:27:56.992Z,96.75
2019-06-07T03:28:55.976Z,96.95
2019-06-07T03:29:55.958Z,96.85
2019-06-07T03:31:01.998Z,97.37
2019-06-07T03:31:56.938Z,96.75
2019-06-07T03:32:55.926Z,97.99
2019-06-07T03:33:55.996Z,97.47
2019-06-07T03:34:55.907Z,97.16
2019-06-07T03:35:55.890Z,98.08
2019-06-07T03:36:55.913Z,97.47
2019-06-07T03:37:55.875Z,97.57
2019-06-07T03:38:55.860Z,97.99
2019-06-07T03:39:55.850Z,97.37
2019-06-07T03:40:55.835Z,97.99
2019-06-07T03:42:06.388Z,97.99
2019-06-07T03:42:56.836Z,97.99
2019-06-07T03:43:55.817Z,97.67
2019-06-07T03:44:55.796Z,97.67
2019-06-07T03:45:55.782Z,97.67
2019-06-07T03:46:55.784Z,97.67
2019-06-07T03:47:55.757Z,97.52
2019-06-07T03:48:55.768Z,97.99
2019-06-07T03:49:55.739Z,98.08
2019-06-07T03:51:04.250Z,97.99
2019-06-07T03:51:56.713Z,98.24
2019-06-07T03:52:55.713Z,97.92
2019-06-07T03:53:55.696Z,98.50
2019-06-07T03:54:55.701Z,98.39
2019-06-07T03:55:55.672Z,98.39
2019-06-07T03:56:55.659Z,99.42
2019-06-07T03:58:56.650Z,99.01
2019-06-07T03:59:55.628Z,99.21
2019-06-07T04:00:55.636Z,98.91
2019-06-07T04:01:55.619Z,98.91
2019-06-07T04:02:55.599Z,99.21
2019-06-07T04:03:55.586Z,98.96
2019-06-07T04:04:55.574Z,99.17
2019-06-07T04:05:55.565Z,98.96
2019-06-07T04:06:55.570Z,98.96
2019-06-07T04:07:55.543Z,99.27
2019-06-07T04:08:55.554Z,98.45
2019-06-07T04:09:55.523Z,99.22
2019-06-07T04:11:00.246Z,98.45
2019-06-07T04:11:56.513Z,98.14
2019-06-07T04:12:55.492Z,98.10
2019-06-07T04:13:55.536Z,98.41
2019-06-07T04:14:55.469Z,98.61
2019-06-07T04:15:55.459Z,98.10
2019-06-07T04:16:55.451Z,98.10
2019-06-07T04:18:01.912Z,98.16
2019-06-07T04:18:56.426Z,97.95
2019-06-07T04:19:55.432Z,97.74
2019-06-07T04:20:55.413Z,97.54
2019-06-07T04:21:55.393Z,97.19
2019-06-07T04:22:55.390Z,97.08
2019-06-07T04:23:55.405Z,96.67
2019-06-07T04:24:55.364Z,97.08
2019-06-07T04:25:55.407Z,97.19
2019-06-07T04:26:55.347Z,95.97
2019-06-07T04:27:55.332Z,95.25
2019-06-07T04:29:31.758Z,94.84
2019-06-07T04:30:07.171Z,95.10
2019-06-07T04:30:56.302Z,93.98
2019-06-07T04:31:55.290Z,93.47
2019-06-07T04:32:55.281Z,94.33
2019-06-07T04:33:55.270Z,93.73
2019-06-07T04:34:55.281Z,94.08
2019-06-07T04:35:55.262Z,93.47
2019-06-07T04:36:59.319Z,93.67
2019-06-07T04:37:55.220Z,93.92
2019-06-07T04:38:55.211Z,93.92
2019-06-07T04:39:55.206Z,94.02
2019-06-07T04:40:55.186Z,94.43
2019-06-07T04:41:55.192Z,94.95
2019-06-07T04:42:55.166Z,95.56
2019-06-07T04:43:55.179Z,95.50
2019-06-07T04:44:55.143Z,96.22
2019-06-07T04:45:55.135Z,95.87
2019-06-07T04:46:55.116Z,95.87
2019-06-07T04:47:55.157Z,95.15
2019-06-07T04:48:55.096Z,95.31
2019-06-07T04:49:55.083Z,94.70
2019-06-07T04:50:55.078Z,94.95
2019-06-07T04:51:55.058Z,95.15
2019-06-07T04:52:55.106Z,95.36
2019-06-07T04:53:55.055Z,95.46
2019-06-07T04:54:55.031Z,95.06
2019-06-07T04:55:55.018Z,93.89
2019-06-07T04:56:55.005Z,92.97
2019-06-07T04:57:54.999Z,91.60
2019-06-07T04:58:54.980Z,91.70
2019-06-07T05:00:11.865Z,91.64
2019-06-07T05:01:02.625Z,92.21
2019-06-07T05:01:55.950Z,91.70
2019-06-07T05:02:54.933Z,90.80
2019-06-07T05:03:54.924Z,88.67
2019-06-07T05:04:54.911Z,87.51
2019-06-07T05:05:54.918Z,86.04
2019-06-07T05:06:54.892Z,84.58
2019-06-07T05:07:54.878Z,83.01
2019-06-07T05:08:54.878Z,82.66
2019-06-07T05:09:54.858Z,81.54
2019-06-07T05:10:54.842Z,80.99
2019-06-07T05:11:54.848Z,80.31
2019-06-07T05:12:54.819Z,79.70
2019-06-07T05:13:54.806Z,79.90
2019-06-07T05:14:54.798Z,79.80
2019-06-07T05:15:54.809Z,78.99
2019-06-07T05:16:54.768Z,78.58
2019-06-07T05:17:54.782Z,78.64
2019-06-07T05:18:54.747Z,77.83
2019-06-07T05:19:54.741Z,78.44
2019-06-07T05:20:54.721Z,78.99
2019-06-07T05:22:04.208Z,79.09
2019-06-07T05:22:55.724Z,79.02
2019-06-07T05:24:06.400Z,80.15
2019-06-07T05:24:55.676Z,79.23
2019-06-07T05:25:54.663Z,78.48
2019-06-07T05:26:54.652Z,78.10
2019-06-07T05:27:54.646Z,76.85
2019-06-07T05:28:54.656Z,77.05
2019-06-07T05:30:09.557Z,74.74
2019-06-07T05:31:04.580Z,74.21
2019-06-07T05:31:55.591Z,73.73
2019-06-07T05:32:54.586Z,72.11
2019-06-07T05:33:54.576Z,72.31
2019-06-07T05:34:54.575Z,71.91
2019-06-07T05:35:54.554Z,71.80
2019-06-07T05:37:11.051Z,72.55
2019-06-07T05:37:55.523Z,72.31
2019-06-07T05:38:54.615Z,71.13
2019-06-07T05:39:54.500Z,70.56
2019-06-07T05:40:54.503Z,69.81
2019-06-07T05:41:54.477Z,70.32
2019-06-07T05:42:54.475Z,69.27
2019-06-07T05:44:11.697Z,68.70
2019-06-07T05:44:55.447Z,69.27
2019-06-07T05:45:54.466Z,68.77
2019-06-07T05:46:54.443Z,68.03
2019-06-07T05:47:54.918Z,67.83
2019-06-07T05:48:54.405Z,68.57
2019-06-07T05:49:54.410Z,68.16
2019-06-07T05:50:57.309Z,68.60
2019-06-07T05:51:54.371Z,69.95
2019-06-07T05:52:54.388Z,67.66
2019-06-07T05:53:54.344Z,66.35
2019-06-07T05:54:54.353Z,66.45
2019-06-07T05:55:54.325Z,66.99
2019-06-07T05:56:54.310Z,67.39
2019-06-07T05:57:54.305Z,67.90
2019-06-07T05:58:54.315Z,67.80
2019-06-07T05:59:54.298Z,67.09
2019-06-07T06:00:54.264Z,66.99
2019-06-07T06:02:02.724Z,66.38
2019-06-07T06:03:04.893Z,66.96
2019-06-07T06:03:55.337Z,66.65
2019-06-07T06:04:54.222Z,67.16
2019-06-07T06:05:55.610Z,66.25
2019-06-07T06:06:54.210Z,66.75
2019-06-07T06:07:54.198Z,67.52
2019-06-07T06:09:12.869Z,67.96
2019-06-07T06:09:57.917Z,69.51
2019-06-07T06:10:54.159Z,69.01
2019-06-07T06:12:01.680Z,68.33
2019-06-07T06:12:55.152Z,68.37
2019-06-07T06:14:06.529Z,70.08
2019-06-07T06:14:55.106Z,70.12
2019-06-07T06:16:01.176Z,70.08
2019-06-07T06:16:55.118Z,71.03
2019-06-07T06:17:54.236Z,72.68
2019-06-07T06:18:54.072Z,72.99
2019-06-07T06:19:54.089Z,72.21
2019-06-07T06:21:15.709Z,70.32
2019-06-07T06:21:55.066Z,68.43
2019-06-07T06:22:54.021Z,68.33
2019-06-07T06:23:54.148Z,68.33
2019-06-07T06:25:29.727Z,68.23
2019-06-07T06:25:57.346Z,68.30
2019-06-07T06:27:00.290Z,67.66
2019-06-07T06:28:10.070Z,65.95
2019-06-07T06:28:56.307Z,67.29
2019-06-07T06:29:53.947Z,67.69
2019-06-07T06:30:53.938Z,66.99
2019-06-07T06:32:39.470Z,67.49
2019-06-07T06:32:58.234Z,67.69
2019-06-07T06:33:54.033Z,67.72
2019-06-07T06:34:55.903Z,68.06
2019-06-07T06:35:53.879Z,67.93
2019-06-07T06:36:53.868Z,67.49
2019-06-07T06:37:53.908Z,66.25
2019-06-07T06:38:53.843Z,66.58
2019-06-07T06:39:53.873Z,67.13
2019-06-07T06:41:12.147Z,66.02
2019-06-07T06:42:01.087Z,65.81
2019-06-07T06:42:54.796Z,66.93
2019-06-07T06:43:53.830Z,66.08
2019-06-07T06:44:54.289Z,64.54
2019-06-07T06:45:53.835Z,64.67
2019-06-07T06:46:58.069Z,65.44
2019-06-07T06:47:55.462Z,66.25
2019-06-07T06:48:55.166Z,67.19
2019-06-07T06:49:54.522Z,67.49
2019-06-07T06:50:53.714Z,67.36
2019-06-07T06:51:54.028Z,67.06
2019-06-07T06:52:54.866Z,66.25
2019-06-07T06:53:53.676Z,65.92
2019-06-07T06:55:00.115Z,64.78
2019-06-07T06:55:54.657Z,65.14
2019-06-07T06:56:53.643Z,66.99
2019-06-07T06:57:53.665Z,67.93
2019-06-07T06:59:34.689Z,67.46
2019-06-07T06:59:54.642Z,65.38
2019-06-07T07:01:05.900Z,64.95
2019-06-07T07:01:54.583Z,65.75
2019-06-07T07:03:40.684Z,64.34
2019-06-07T07:04:11.064Z,63.87
2019-06-07T07:04:54.549Z,63.67
2019-06-07T07:05:54.918Z,64.34
2019-06-07T07:06:53.909Z,63.70
2019-06-07T07:07:53.519Z,64.72
2019-06-07T07:08:53.631Z,65.15
2019-06-07T07:09:58.968Z,64.58
2019-06-07T07:10:55.221Z,62.88
2019-06-07T07:12:10.305Z,62.07
2019-06-07T07:12:54.514Z,60.84
2019-06-07T07:13:56.470Z,60.44
2019-06-07T07:14:56.096Z,60.11
2019-06-07T07:15:58.077Z,58.97
2019-06-07T07:16:56.652Z,58.64
2019-06-07T07:18:07.965Z,58.34
2019-06-07T07:18:54.873Z,62.26
2019-06-07T07:19:55.671Z,64.54
2019-06-07T07:20:56.775Z,64.04
2019-06-07T07:21:55.309Z,63.90
2019-06-07T07:22:56.865Z,63.40
2019-06-07T07:24:19.472Z,64.51
2019-06-07T07:24:54.993Z,63.14
2019-06-07T07:25:59.067Z,60.64
2019-06-07T07:26:58.284Z,60.84
2019-06-07T07:27:55.255Z,59.80
2019-06-07T07:28:57.134Z,58.80
2019-06-07T07:30:29.379Z,59.79
2019-06-07T07:30:57.145Z,61.67
2019-06-07T07:31:56.202Z,60.00
2019-06-07T07:32:57.206Z,58.34
2019-06-07T07:35:00.056Z,57.04
2019-06-07T07:36:17.545Z,57.97
2019-06-07T07:36:59.634Z,58.24
2019-06-07T07:37:59.646Z,58.75
2019-06-07T07:39:00.730Z,59.47
2019-06-07T07:40:01.408Z,60.08
2019-06-07T07:41:10.061Z,59.67
2019-06-07T07:42:16.717Z,60.28
2019-06-07T07:42:56.549Z,58.11
2019-06-07T07:44:04.690Z,58.04
2019-06-07T07:44:56.498Z,57.24
2019-06-07T07:45:59.141Z,56.51
2019-06-07T07:46:55.931Z,55.78
2019-06-07T07:48:11.079Z,55.80
2019-06-07T07:48:56.019Z,56.01
2019-06-07T07:49:58.504Z,56.78
2019-06-07T07:51:00.046Z,57.18
2019-06-07T07:51:58.331Z,55.52
2019-06-07T07:52:56.863Z,54.90
2019-06-07T07:54:08.698Z,55.05
2019-06-07T07:54:56.639Z,55.52
2019-06-07T07:55:58.514Z,55.28
2019-06-07T07:56:56.153Z,54.90
2019-06-07T07:58:00.913Z,55.98
2019-06-07T07:59:01.017Z,56.18
2019-06-07T08:00:06.008Z,54.82
2019-06-07T08:01:08.489Z,53.42
2019-06-07T08:01:55.966Z,54.10
2019-06-07T08:02:56.138Z,53.50
2019-06-07T08:03:54.874Z,53.57
2019-06-07T08:05:20.178Z,53.57
2019-06-07T08:05:58.373Z,53.50
2019-06-07T08:06:55.995Z,54.43
2019-06-07T08:07:56.527Z,54.07
2019-06-07T08:08:56.726Z,54.90
2019-06-07T08:09:57.693Z,54.65
2019-06-07T08:10:58.069Z,54.10
2019-06-07T08:12:00.028Z,52.92
2019-06-07T08:13:14.456Z,53.22
2019-06-07T08:13:57.266Z,52.82
2019-06-07T08:14:57.471Z,53.17
2019-06-07T08:15:58.779Z,53.90
2019-06-07T08:16:54.500Z,54.07
2019-06-07T08:17:58.093Z,54.38
2019-06-07T08:19:00.330Z,53.77
2019-06-07T08:19:55.011Z,53.87
2019-06-07T08:21:15.065Z,55.00
2019-06-07T08:21:55.710Z,54.97
2019-06-07T08:22:55.474Z,54.10
2019-06-07T08:23:58.316Z,52.87
2019-06-07T08:24:55.311Z,53.09
2019-06-07T08:25:56.624Z,52.62
2019-06-07T08:27:17.656Z,52.62
2019-06-07T08:27:55.999Z,53.12
2019-06-07T08:28:55.920Z,53.25
2019-06-07T08:30:14.354Z,53.22
2019-06-07T08:31:02.435Z,53.12
2019-06-07T08:31:55.827Z,54.20
2019-06-07T08:32:55.881Z,53.00
2019-06-07T08:33:58.070Z,54.85
2019-06-07T08:34:59.823Z,53.50
2019-06-07T08:36:54.911Z,54.00
2019-06-07T08:38:21.357Z,55.60
2019-06-07T08:38:57.865Z,54.60
2019-06-07T08:39:56.705Z,54.22
2019-06-07T08:40:59.081Z,53.00
2019-06-07T08:42:08.856Z,53.00
2019-06-07T08:43:15.115Z,52.89
2019-06-07T08:43:56.455Z,53.22
2019-06-07T08:44:54.320Z,53.62
2019-06-07T08:45:58.408Z,54.58
2019-06-07T08:47:11.731Z,55.08
2019-06-07T08:47:58.002Z,55.18
2019-06-07T08:48:55.990Z,54.17
2019-06-07T08:49:56.202Z,53.87
2019-06-07T08:50:57.065Z,54.25
2019-06-07T08:51:57.706Z,55.08
2019-06-07T08:52:56.942Z,54.15
2019-06-07T08:54:09.538Z,53.30
2019-06-07T08:54:54.898Z,53.82
2019-06-07T08:55:58.268Z,53.19
2019-06-07T08:56:55.761Z,51.94
2019-06-07T08:58:01.237Z,54.22
2019-06-07T08:58:56.438Z,54.93
2019-06-07T08:59:55.684Z,53.14
2019-06-07T09:00:55.508Z,52.80
2019-06-07T09:01:57.811Z,50.89
2019-06-07T09:02:55.668Z,51.87
2019-06-07T09:03:55.012Z,51.12
2019-06-07T09:04:54.773Z,51.79
2019-06-07T09:05:54.175Z,52.39
2019-06-07T09:07:07.267Z,52.55
2019-06-07T09:08:13.328Z,53.37
2019-06-07T09:08:53.813Z,54.12
2019-06-07T09:09:59.764Z,54.60
2019-06-07T09:10:54.036Z,53.67
2019-06-07T09:11:52.460Z,51.74
2019-06-07T09:12:54.394Z,52.97
2019-06-07T09:13:55.500Z,51.54
2019-06-07T09:15:09.434Z,51.04
2019-06-07T09:15:53.699Z,52.49
2019-06-07T09:16:55.380Z,54.70
2019-06-07T09:18:34.885Z,54.00
2019-06-07T09:18:57.001Z,52.52
2019-06-07T09:19:55.515Z,51.72
2019-06-07T09:20:52.095Z,51.84
2019-06-07T09:21:52.084Z,52.64
2019-06-07T09:22:52.086Z,50.97
2019-06-07T09:23:52.110Z,51.27
2019-06-07T09:24:52.058Z,49.55
2019-06-07T09:26:02.634Z,49.95
2019-06-07T09:26:53.028Z,50.45
2019-06-07T09:27:52.023Z,49.95
2019-06-07T09:28:52.029Z,50.72
2019-06-07T09:29:52.025Z,49.62
2019-06-07T09:30:51.997Z,50.87
2019-06-07T09:31:53.714Z,51.62
2019-06-07T09:32:51.971Z,51.79
2019-06-07T09:33:51.964Z,51.20
2019-06-07T09:34:51.956Z,52.52
2019-06-07T09:35:51.957Z,52.84
2019-06-07T09:36:52.044Z,53.47
2019-06-07T09:38:07.317Z,53.37
2019-06-07T09:38:52.909Z,53.85
2019-06-07T09:39:51.900Z,53.32
2019-06-07T09:40:51.895Z,53.24
2019-06-07T09:41:51.922Z,53.05
2019-06-07T09:43:38.643Z,52.99
2019-06-07T09:44:04.696Z,52.29
2019-06-07T09:44:52.851Z,53.12
2019-06-07T09:45:51.847Z,53.59
2019-06-07T09:47:12.845Z,53.19
2019-06-07T09:47:52.846Z,53.47
2019-06-07T09:49:52.841Z,49.53
2019-06-07T09:50:51.801Z,49.33
2019-06-07T09:51:51.782Z,50.77
2019-06-07T09:52:58.703Z,50.99
2019-06-07T09:53:52.799Z,50.79
2019-06-07T09:55:52.741Z,50.99
2019-06-07T09:56:51.731Z,53.12
2019-06-07T09:57:51.724Z,50.97
2019-06-07T09:58:53.683Z,51.20
2019-06-07T09:59:51.734Z,51.67
2019-06-07T10:00:51.741Z,52.44
2019-06-07T10:01:51.684Z,50.82
2019-06-07T10:02:51.698Z,51.40
2019-06-07T10:03:51.662Z,51.59
2019-06-07T10:04:51.650Z,50.67
2019-06-07T10:05:51.656Z,50.87
2019-06-07T10:06:51.643Z,50.49
2019-06-07T10:08:04.078Z,50.72
2019-06-07T10:10:52.616Z,51.59
2019-06-07T10:11:51.579Z,50.35
2019-06-07T10:12:51.573Z,50.32
2019-06-07T10:13:51.558Z,51.57
2019-06-07T10:14:51.556Z,52.59
2019-06-07T10:15:53.639Z,50.87
2019-06-07T10:16:51.546Z,52.37
2019-06-07T10:17:51.524Z,51.10
2019-06-07T10:18:51.513Z,50.97
2019-06-07T10:19:51.501Z,50.45
2019-06-07T10:20:51.493Z,51.47
2019-06-07T10:21:51.481Z,51.40
2019-06-07T10:22:51.488Z,51.47
2019-06-07T10:23:51.470Z,51.89
2019-06-07T10:24:51.447Z,51.50
2019-06-07T10:25:51.445Z,52.27
2019-06-07T10:26:51.442Z,50.65
2019-06-07T10:27:51.421Z,50.74
2019-06-07T10:28:53.547Z,51.15
2019-06-07T10:29:51.402Z,52.04
2019-06-07T10:30:51.400Z,51.05
2019-06-07T10:31:51.379Z,51.72
2019-06-07T10:32:52.296Z,50.38
2019-06-07T10:33:51.358Z,50.80
2019-06-07T10:34:51.370Z,50.70
2019-06-07T10:35:51.338Z,48.24
2019-06-07T10:36:51.335Z,48.66
2019-06-07T10:37:51.319Z,48.14
2019-06-07T10:38:51.398Z,49.55
2019-06-07T10:39:51.295Z,49.04
2019-06-07T10:40:51.310Z,49.88
2019-06-07T10:41:54.038Z,49.16
2019-06-07T10:42:51.264Z,48.46
2019-06-07T10:43:51.276Z,50.20
2019-06-07T10:44:51.251Z,49.68
2019-06-07T10:45:51.235Z,50.70
2019-06-07T10:46:51.245Z,49.60
2019-06-07T10:47:51.218Z,50.73
2019-06-07T10:48:51.209Z,51.15
2019-06-07T10:49:51.205Z,51.27
2019-06-07T10:50:51.204Z,50.65
2019-06-07T10:51:51.177Z,51.05
2019-06-07T10:52:51.193Z,51.15
2019-06-07T10:53:51.159Z,50.43
2019-06-07T10:54:51.144Z,49.01
2019-06-07T10:55:51.132Z,49.53
2019-06-07T10:56:51.128Z,50.77
2019-06-07T10:57:51.145Z,50.55
2019-06-07T10:58:51.124Z,49.51
2019-06-07T10:59:51.093Z,49.33
2019-06-07T11:00:51.290Z,50.62
2019-06-07T11:01:51.096Z,49.85
2019-06-07T11:02:54.758Z,49.85
2019-06-07T11:03:51.057Z,50.87
2019-06-07T11:04:51.058Z,51.03
2019-06-07T11:05:51.033Z,49.58
2019-06-07T11:06:51.041Z,47.77
2019-06-07T11:07:51.210Z,47.89
2019-06-07T11:08:51.004Z,48.36
2019-06-07T11:10:05.658Z,47.96
2019-06-07T11:10:51.998Z,48.26
2019-06-07T11:11:50.973Z,48.68
2019-06-07T11:12:50.964Z,49.38
2019-06-07T11:13:52.587Z,48.54
2019-06-07T11:14:50.947Z,48.34
2019-06-07T11:15:50.951Z,48.16
2019-06-07T11:16:51.002Z,48.24
2019-06-07T11:17:50.912Z,48.24
2019-06-07T11:18:50.900Z,48.16
2019-06-07T11:19:50.904Z,48.16
2019-06-07T11:20:50.899Z,48.41
2019-06-07T11:21:50.869Z,49.08
2019-06-07T11:22:50.887Z,49.38
2019-06-07T11:23:50.850Z,48.79
2019-06-07T11:24:50.846Z,49.60
2019-06-07T11:25:50.837Z,49.55
2019-06-07T11:26:50.818Z,49.80
2019-06-07T11:27:50.808Z,47.10
2019-06-07T11:28:50.844Z,47.00
2019-06-07T11:29:50.795Z,48.14
2019-06-07T11:30:50.859Z,51.87
2019-06-07T11:31:50.770Z,53.02
2019-06-07T11:32:50.770Z,54.74
2019-06-07T11:33:50.755Z,53.99
2019-06-07T11:34:51.046Z,54.19
2019-06-07T11:35:50.734Z,54.10
2019-06-07T11:36:51.215Z,54.10
2019-06-07T11:37:50.703Z,54.17
2019-06-07T11:38:50.701Z,53.57
2019-06-07T11:39:50.695Z,53.97
2019-06-07T11:40:50.725Z,53.77
2019-06-07T11:41:50.721Z,54.86
2019-06-07T11:42:52.761Z,54.44
2019-06-07T11:43:50.641Z,54.24
2019-06-07T11:44:56.752Z,54.69
2019-06-07T11:45:51.640Z,56.02
2019-06-07T11:46:50.610Z,55.82
2019-06-07T11:47:50.595Z,55.42
2019-06-07T11:48:50.587Z,55.92
2019-06-07T11:49:50.585Z,55.35
2019-06-07T11:50:50.575Z,55.44
2019-06-07T11:51:50.581Z,54.57
2019-06-07T11:52:50.546Z,54.17
2019-06-07T11:53:50.540Z,54.37
2019-06-07T11:54:50.544Z,54.77
2019-06-07T11:55:50.510Z,54.57
2019-06-07T11:56:50.501Z,55.47
2019-06-07T11:57:50.503Z,55.57
2019-06-07T11:58:50.491Z,54.67
2019-06-07T11:59:50.463Z,55.55
2019-06-07T12:00:50.451Z,55.47
2019-06-07T12:01:50.443Z,54.55
2019-06-07T12:02:50.436Z,55.74
2019-06-07T12:03:50.444Z,55.24
2019-06-07T12:04:50.406Z,55.94
2019-06-07T12:05:50.403Z,56.85
2019-06-07T12:06:50.384Z,56.57
2019-06-07T12:07:50.378Z,56.35
2019-06-07T12:08:50.368Z,55.87
2019-06-07T12:09:56.412Z,55.87
2019-06-07T12:10:51.338Z,56.05
2019-06-07T12:11:50.338Z,56.05
2019-06-07T12:12:50.325Z,55.72
2019-06-07T12:13:50.309Z,55.72
2019-06-07T12:14:50.296Z,55.94
2019-06-07T12:15:50.305Z,56.05
2019-06-07T12:16:50.273Z,56.65
2019-06-07T12:17:50.275Z,56.57
2019-06-07T12:18:50.250Z,56.37
2019-06-07T12:19:50.240Z,56.67
2019-06-07T12:20:50.227Z,56.55
2019-06-07T12:21:50.273Z,56.95
2019-06-07T12:22:50.224Z,56.98
2019-06-07T12:23:50.194Z,57.00
2019-06-07T12:24:50.182Z,58.30
2019-06-07T12:25:50.177Z,58.37
2019-06-07T12:26:50.161Z,58.61
2019-06-07T12:27:50.266Z,58.20
2019-06-07T12:28:50.141Z,58.30
2019-06-07T12:29:50.127Z,59.00
2019-06-07T12:30:50.115Z,58.30
2019-06-07T12:31:50.108Z,58.18
2019-06-07T12:32:50.091Z,57.90
2019-06-07T12:33:50.105Z,58.20
2019-06-07T12:34:50.068Z,58.40
2019-06-07T12:35:50.060Z,59.23
2019-06-07T12:36:50.051Z,58.91
2019-06-07T12:37:50.042Z,58.30
2019-06-07T12:38:50.027Z,58.91
2019-06-07T12:39:50.032Z,58.30
2019-06-07T12:40:57.499Z,58.40
2019-06-07T12:41:50.992Z,58.37
2019-06-07T12:42:49.978Z,58.50
2019-06-07T12:43:49.968Z,58.50
2019-06-07T12:44:49.954Z,57.57
2019-06-07T12:45:49.964Z,58.11
2019-06-07T12:46:49.938Z,58.20
2019-06-07T12:47:49.925Z,58.40
2019-06-07T12:48:49.915Z,58.70
2019-06-07T12:49:49.899Z,58.81
2019-06-07T12:50:49.890Z,58.70
2019-06-07T12:51:49.898Z,58.91
2019-06-07T12:52:49.905Z,58.37
2019-06-07T12:53:49.851Z,58.58
2019-06-07T12:54:49.847Z,58.98
2019-06-07T12:55:49.831Z,57.98
2019-06-07T12:56:52.293Z,57.85
2019-06-07T12:57:49.920Z,56.85
2019-06-07T12:58:49.823Z,57.75
2019-06-07T12:59:49.812Z,57.05